Time;durP1;ratioP1;P1;durP2;ratioP2;P2;SDS_P1;SDS_P2;PMS_P1;PMS_P2;Temp;Humidity;BMP_temperature;BMP_pressure;BME280_temperature;BME280_humidity;BME280_pressure;Samples;Min_cycle;Max_cycle;Signal;HPM_P1;HPM_P2
2023/05/16 00:04:07;;;;;;;;;;;7.60;99.90;;;;;;8229296;28;19911;-85
2023/05/16 00:08:21;;;;;;;;;;;7.90;99.90;;;;;;8227243;28;20013;-86
2023/05/16 00:17:03;;;;;;;;;;;8.10;99.90;;;;;;8214655;28;19938;-85
2023/05/16 00:21:07;;;;;;;;;;;8.20;99.90;;;;;;8225042;28;19914;-85
2023/05/16 00:25:10;;;;;;;;;;;7.40;99.90;;;;;;8250235;28;19914;-84
2023/05/16 00:29:15;;;;;;;;;;;8.00;99.90;;;;;;8246859;28;20384;-84
2023/05/16 00:33:16;;;;;;;;;;;7.20;99.90;;;;;;8240959;28;20012;-87
2023/05/16 00:37:23;;;;;;;;;;;7.90;99.90;;;;;;8243726;28;19918;-85
2023/05/16 00:41:26;;;;;;;;;;;8.60;99.90;;;;;;8227394;28;19969;-86
2023/05/16 00:45:39;;;;;;;;;;;7.90;99.90;;;;;;8233971;28;20379;-85
2023/05/16 00:49:45;;;;;;;;;;;8.00;99.90;;;;;;8243330;28;20009;-85
2023/05/16 00:54:32;;;;;;;;;;;7.70;99.90;;;;;;8234829;28;19910;-85
2023/05/16 00:58:39;;;;;;;;;;;8.10;99.90;;;;;;8238875;28;19940;-85
2023/05/16 01:02:52;;;;;;;;;;;8.20;99.90;;;;;;8243117;28;19914;-85
2023/05/16 01:06:54;;;;;;;;;;;8.20;99.90;;;;;;8242561;28;19915;-86
2023/05/16 01:16:02;;;;;;;;;;;8.60;99.90;;;;;;8239478;28;19969;-85
2023/05/16 01:20:21;;;;;;;;;;;8.50;99.90;;;;;;8197546;29;19926;-85
2023/05/16 01:24:46;;;;;;;;;;;8.70;99.90;;;;;;8207739;28;20515;-85
2023/05/16 01:29:07;;;;;;;;;;;9.20;99.90;;;;;;8241774;28;19956;-85
2023/05/16 01:33:21;;;;;;;;;;;8.80;99.90;;;;;;8223638;28;19933;-85
2023/05/16 01:37:35;;;;;;;;;;;9.40;99.90;;;;;;8228606;28;19933;-86
2023/05/16 01:42:11;;;;;;;;;;;8.60;99.90;;;;;;8237324;28;19914;-84
2023/05/16 01:51:16;;;;;;;;;;;9.00;99.90;;;;;;8179114;29;20002;-85
2023/05/16 01:55:35;;;;;;;;;;;8.80;99.90;;;;;;8236190;28;19914;-85
2023/05/16 02:00:04;;;;;;;;;;;8.60;99.90;;;;;;8235916;28;19911;-85
2023/05/16 02:04:14;;;;;;;;;;;8.50;99.90;;;;;;8246285;28;19917;-85
2023/05/16 02:08:22;;;;;;;;;;;8.30;99.90;;;;;;8240071;28;20401;-85
2023/05/16 02:12:23;;;;;;;;;;;9.00;99.90;;;;;;8247739;28;19964;-84
2023/05/16 02:20:51;;;;;;;;;;;9.30;99.90;;;;;;8157492;28;19925;-84
2023/05/16 02:24:58;;;;;;;;;;;10.30;99.90;;;;;;8228588;28;19914;-84
2023/05/16 02:29:15;;;;;;;;;;;9.20;99.90;;;;;;8229644;28;19910;-84
2023/05/16 02:33:15;;;;;;;;;;;9.90;99.90;;;;;;8236580;28;19986;-84
2023/05/16 02:37:36;;;;;;;;;;;8.30;99.90;;;;;;8236621;28;20392;-85
2023/05/16 02:41:40;;;;;;;;;;;8.00;99.90;;;;;;8220683;28;19956;-85
2023/05/16 02:45:54;;;;;;;;;;;7.80;99.90;;;;;;8236043;28;19910;-84
2023/05/16 02:50:18;;;;;;;;;;;7.40;99.90;;;;;;8225703;28;19911;-85
2023/05/16 02:54:21;;;;;;;;;;;7.30;99.90;;;;;;8283286;23;19898;-82
2023/05/16 02:58:30;;;;;;;;;;;6.80;99.90;;;;;;8216537;28;19918;-81
2023/05/16 03:02:36;;;;;;;;;;;7.50;99.90;;;;;;8229455;28;20413;-81
2023/05/16 03:06:36;;;;;;;;;;;7.40;99.90;;;;;;8252811;23;19941;-84
2023/05/16 03:10:37;;;;;;;;;;;7.00;99.90;;;;;;8243791;28;19918;-83
2023/05/16 03:14:37;;;;;;;;;;;7.90;99.90;;;;;;8224916;28;19910;-84
2023/05/16 03:18:38;;;;;;;;;;;7.60;99.90;;;;;;8208197;29;19972;-84
2023/05/16 03:22:39;;;;;;;;;;;6.90;99.90;;;;;;8205510;29;19918;-84
2023/05/16 03:26:40;;;;;;;;;;;7.80;99.90;;;;;;8210034;28;19917;-84
2023/05/16 03:30:40;;;;;;;;;;;8.30;99.90;;;;;;8207559;28;19911;-84
2023/05/16 03:34:41;;;;;;;;;;;7.10;99.90;;;;;;8210124;28;20461;-84
2023/05/16 03:38:41;;;;;;;;;;;8.30;99.90;;;;;;8207627;29;19910;-84
2023/05/16 03:42:42;;;;;;;;;;;8.40;99.90;;;;;;8214866;28;19922;-84
2023/05/16 03:46:43;;;;;;;;;;;7.40;99.90;;;;;;8207504;28;20612;-85
2023/05/16 03:50:43;;;;;;;;;;;7.90;99.90;;;;;;8192074;28;19918;-86
2023/05/16 03:54:44;;;;;;;;;;;6.50;99.90;;;;;;8215829;28;19966;-85
2023/05/16 03:58:44;;;;;;;;;;;6.60;99.90;;;;;;8218251;28;19918;-86
2023/05/16 04:02:45;;;;;;;;;;;6.70;99.90;;;;;;8206054;28;19918;-86
2023/05/16 04:06:45;;;;;;;;;;;6.80;99.90;;;;;;8220317;28;19914;-87
2023/05/16 04:10:46;;;;;;;;;;;6.80;99.90;;;;;;8210969;28;19921;-84
2023/05/16 04:14:46;;;;;;;;;;;7.40;99.90;;;;;;8216208;29;19917;-84
2023/05/16 04:18:47;;;;;;;;;;;6.60;99.90;;;;;;8216152;28;19914;-84
2023/05/16 04:22:47;;;;;;;;;;;6.90;99.90;;;;;;8215846;28;19969;-84
2023/05/16 04:26:48;;;;;;;;;;;6.20;99.90;;;;;;8219142;28;19941;-84
2023/05/16 04:30:49;;;;;;;;;;;7.40;99.90;;;;;;8196803;28;20009;-84
2023/05/16 04:34:52;;;;;;;;;;;8.00;99.90;;;;;;8219370;28;19915;-84
2023/05/16 04:38:52;;;;;;;;;;;7.20;99.90;;;;;;8215214;28;19910;-84
2023/05/16 04:42:54;;;;;;;;;;;7.30;99.90;;;;;;8216633;28;19966;-84
2023/05/16 04:46:54;;;;;;;;;;;6.90;99.90;;;;;;8211982;28;20329;-84
2023/05/16 04:50:55;;;;;;;;;;;7.60;99.90;;;;;;8210271;28;19914;-82
2023/05/16 04:54:59;;;;;;;;;;;7.40;99.90;;;;;;8206473;29;19914;-83
2023/05/16 04:58:59;;;;;;;;;;;7.10;99.90;;;;;;8198732;28;19919;-83
2023/05/16 05:03:00;;;;;;;;;;;8.10;99.90;;;;;;8207681;28;19956;-82
2023/05/16 05:07:01;;;;;;;;;;;8.70;99.90;;;;;;8191163;28;19925;-83
2023/05/16 05:11:01;;;;;;;;;;;8.80;99.90;;;;;;8191681;29;19978;-82
2023/05/16 05:15:02;;;;;;;;;;;9.20;99.90;;;;;;8196999;29;19917;-83
2023/05/16 05:19:03;;;;;;;;;;;9.00;99.90;;;;;;8213838;29;20299;-82
2023/05/16 05:23:03;;;;;;;;;;;9.80;99.90;;;;;;8190829;28;20347;-82
2023/05/16 05:27:19;;;;;;;;;;;10.00;99.90;;;;;;8207630;29;20314;-83
2023/05/16 05:31:20;;;;;;;;;;;10.50;99.90;;;;;;8205724;29;19911;-82
2023/05/16 05:35:20;;;;;;;;;;;10.80;99.90;;;;;;8205036;29;19969;-83
2023/05/16 05:39:21;;;;;;;;;;;11.90;99.90;;;;;;8205395;29;19910;-82
2023/05/16 05:43:21;;;;;;;;;;;12.50;99.90;;;;;;8204066;29;19936;-82
2023/05/16 05:47:22;;;;;;;;;;;13.10;99.90;;;;;;8204004;29;19915;-82
2023/05/16 05:51:22;;;;;;;;;;;13.50;99.90;;;;;;8204281;29;19914;-83
2023/05/16 05:55:23;;;;;;;;;;;14.00;99.90;;;;;;8203510;29;19910;-83
2023/05/16 05:59:23;;;;;;;;;;;14.50;99.90;;;;;;8203218;29;19918;-82
2023/05/16 06:03:24;;;;;;;;;;;14.80;99.90;;;;;;8202830;29;19950;-82
2023/05/16 06:07:25;;;;;;;;;;;14.60;99.90;;;;;;8203192;28;19923;-82
2023/05/16 06:11:25;;;;;;;;;;;13.90;99.90;;;;;;8202761;28;20495;-82
2023/05/16 06:15:26;;;;;;;;;;;13.30;99.90;;;;;;8204216;29;19915;-83
2023/05/16 06:19:26;;;;;;;;;;;13.10;99.90;;;;;;8204017;29;19910;-82
2023/05/16 06:23:27;;;;;;;;;;;12.80;99.90;;;;;;8203004;29;19919;-82
2023/05/16 06:27:27;;;;;;;;;;;12.60;99.90;;;;;;8203909;29;20005;-82
2023/05/16 06:31:28;;;;;;;;;;;12.50;99.90;;;;;;8203799;29;19917;-83
2023/05/16 06:35:28;;;;;;;;;;;12.30;99.90;;;;;;8205419;29;20386;-83
2023/05/16 06:39:28;;;;;;;;;;;12.40;99.90;;;;;;8208149;29;20425;-83
2023/05/16 06:43:29;;;;;;;;;;;12.40;99.90;;;;;;8207604;29;20315;-83
2023/05/16 06:47:29;;;;;;;;;;;12.70;99.90;;;;;;8206696;29;19938;-82
2023/05/16 06:51:30;;;;;;;;;;;12.90;99.90;;;;;;8190785;29;19917;-83
2023/05/16 06:55:31;;;;;;;;;;;13.20;99.90;;;;;;8206001;29;19910;-83
2023/05/16 06:59:32;;;;;;;;;;;13.20;99.90;;;;;;8206025;29;20209;-83
2023/05/16 07:03:32;;;;;;;;;;;13.30;99.90;;;;;;8206061;28;19914;-83
2023/05/16 07:07:33;;;;;;;;;;;13.70;99.90;;;;;;8206652;29;19925;-82
2023/05/16 07:11:33;;;;;;;;;;;13.70;99.90;;;;;;8207989;29;19977;-82
2023/05/16 07:15:34;;;;;;;;;;;13.50;99.90;;;;;;8208103;29;19921;-82
2023/05/16 07:19:34;;;;;;;;;;;13.80;99.90;;;;;;8207993;29;19921;-83
2023/05/16 07:23:35;;;;;;;;;;;13.60;99.90;;;;;;8206608;28;19914;-82
2023/05/16 07:27:36;;;;;;;;;;;13.70;99.90;;;;;;8207528;29;19911;-82
2023/05/16 07:31:36;;;;;;;;;;;13.90;99.90;;;;;;8207585;29;19910;-82
2023/05/16 07:35:37;;;;;;;;;;;13.70;99.90;;;;;;8205972;29;20380;-81
2023/05/16 07:39:38;;;;;;;;;;;14.00;99.90;;;;;;8207530;29;20046;-83
2023/05/16 07:43:39;;;;;;;;;;;14.60;99.90;;;;;;8207592;29;19925;-82
2023/05/16 07:47:39;;;;;;;;;;;15.30;99.90;;;;;;8205138;29;20276;-82
2023/05/16 07:51:40;;;;;;;;;;;15.90;99.90;;;;;;8204663;29;19910;-83
2023/05/16 07:55:40;;;;;;;;;;;15.70;99.90;;;;;;8207161;29;20493;-82
2023/05/16 07:59:42;;;;;;;;;;;15.60;99.90;;;;;;8205669;29;20380;-83
2023/05/16 08:03:42;;;;;;;;;;;15.10;99.90;;;;;;8189038;29;19914;-83
2023/05/16 08:07:43;;;;;;;;;;;14.30;99.90;;;;;;8205244;28;20375;-82
2023/05/16 08:11:45;;;;;;;;;;;13.90;99.90;;;;;;8203561;29;19997;-82
2023/05/16 08:15:45;;;;;;;;;;;13.90;99.90;;;;;;8203487;29;19914;-82
2023/05/16 08:19:46;;;;;;;;;;;14.00;99.90;;;;;;8202612;29;20403;-82
2023/05/16 08:23:46;;;;;;;;;;;14.40;99.90;;;;;;8202063;29;20327;-83
2023/05/16 08:27:47;;;;;;;;;;;14.50;99.90;;;;;;8201203;29;19910;-83
2023/05/16 08:31:48;;;;;;;;;;;14.60;99.90;;;;;;8202346;29;19910;-82
2023/05/16 08:35:49;;;;;;;;;;;14.40;99.90;;;;;;8203588;28;19965;-83
2023/05/16 08:39:50;;;;;;;;;;;14.30;99.90;;;;;;8207717;29;19918;-82
2023/05/16 08:43:50;;;;;;;;;;;14.40;99.90;;;;;;8206867;29;19974;-82
2023/05/16 08:47:53;;;;;;;;;;;14.50;99.90;;;;;;8206266;29;19933;-83
2023/05/16 08:51:56;;;;;;;;;;;15.20;99.90;;;;;;8207826;29;19911;-83
2023/05/16 08:55:57;;;;;;;;;;;15.90;99.90;;;;;;8206537;29;20371;-84
2023/05/16 08:59:57;;;;;;;;;;;15.90;99.90;;;;;;8204477;29;19914;-83
2023/05/16 09:03:59;;;;;;;;;;;15.60;99.90;;;;;;8204583;29;19910;-83
2023/05/16 09:07:59;;;;;;;;;;;15.30;99.90;;;;;;8204297;28;19942;-83
2023/05/16 09:11:59;;;;;;;;;;;15.20;99.90;;;;;;8205146;29;19997;-83
2023/05/16 09:16:16;;;;;;;;;;;15.00;99.90;;;;;;8205824;29;20430;-82
2023/05/16 09:20:18;;;;;;;;;;;14.30;99.90;;;;;;8207508;29;19915;-83
2023/05/16 09:24:24;;;;;;;;;;;14.00;99.90;;;;;;8202935;29;20248;-83
2023/05/16 09:28:25;;;;;;;;;;;13.60;99.90;;;;;;8205071;29;19910;-83
2023/05/16 09:32:25;;;;;;;;;;;13.30;99.90;;;;;;8204912;29;19921;-83
2023/05/16 09:36:26;;;;;;;;;;;13.40;99.90;;;;;;8204893;29;19911;-83
2023/05/16 09:40:26;;;;;;;;;;;13.40;99.90;;;;;;8206384;29;20538;-83
2023/05/16 09:44:27;;;;;;;;;;;13.50;99.90;;;;;;8205066;29;20005;-83
2023/05/16 09:48:27;;;;;;;;;;;13.70;99.90;;;;;;8189011;29;19911;-84
2023/05/16 09:52:28;;;;;;;;;;;13.50;99.90;;;;;;8207545;29;19911;-83
2023/05/16 09:56:29;;;;;;;;;;;13.30;99.90;;;;;;8205971;29;19910;-83
2023/05/16 10:00:30;;;;;;;;;;;12.50;99.90;;;;;;8205664;29;19915;-83
2023/05/16 10:04:32;;;;;;;;;;;12.70;99.90;;;;;;8190408;29;20288;-83
2023/05/16 10:08:36;;;;;;;;;;;12.60;99.90;;;;;;8204856;28;20022;-83
2023/05/16 10:12:37;;;;;;;;;;;12.80;99.90;;;;;;8205542;29;19952;-83
2023/05/16 10:16:40;;;;;;;;;;;13.00;99.90;;;;;;8205479;29;19966;-83
2023/05/16 10:20:42;;;;;;;;;;;13.70;99.90;;;;;;8204979;29;20391;-83
2023/05/16 10:24:46;;;;;;;;;;;14.40;99.90;;;;;;8204285;29;19917;-83
2023/05/16 10:28:47;;;;;;;;;;;14.50;99.90;;;;;;8205041;29;19911;-83
2023/05/16 10:32:48;;;;;;;;;;;15.70;99.90;;;;;;8206001;29;20009;-83
2023/05/16 10:36:49;;;;;;;;;;;16.40;99.90;;;;;;8204112;29;19914;-83
2023/05/16 10:40:50;;;;;;;;;;;15.60;99.90;;;;;;8203479;29;20375;-83
2023/05/16 10:44:55;;;;;;;;;;;15.50;99.90;;;;;;8202384;29;20372;-83
2023/05/16 10:48:55;;;;;;;;;;;16.20;99.90;;;;;;8202100;29;19914;-83
2023/05/16 10:53:09;;;;;;;;;;;16.10;99.90;;;;;;8203609;29;19953;-83
2023/05/16 10:57:15;;;;;;;;;;;16.20;99.90;;;;;;8201398;29;19910;-83
2023/05/16 11:01:23;;;;;;;;;;;16.10;99.90;;;;;;8202859;28;19918;-83
2023/05/16 11:05:24;;;;;;;;;;;15.70;99.90;;;;;;8201327;29;19911;-83
2023/05/16 11:09:26;;;;;;;;;;;15.10;99.90;;;;;;8200864;28;19969;-82
2023/05/16 11:13:26;;;;;;;;;;;14.90;99.90;;;;;;8200825;29;20607;-82
2023/05/16 11:17:28;;;;;;;;;;;14.70;99.90;;;;;;8200547;29;19910;-82
2023/05/16 11:21:48;;;;;;;;;;;14.80;99.90;;;;;;8200223;29;19914;-83
2023/05/16 11:25:51;;;;;;;;;;;15.40;99.90;;;;;;8199943;29;19921;-82
2023/05/16 11:29:52;;;;;;;;;;;15.50;99.90;;;;;;8199728;29;19953;-83
2023/05/16 11:33:52;;;;;;;;;;;15.60;99.90;;;;;;8200093;29;19919;-83
2023/05/16 11:37:53;;;;;;;;;;;15.30;99.90;;;;;;8200663;29;19914;-82
2023/05/16 11:41:53;;;;;;;;;;;15.00;99.90;;;;;;8201978;29;19919;-83
2023/05/16 11:45:54;;;;;;;;;;;14.90;99.90;;;;;;8200601;29;19910;-83
2023/05/16 11:49:58;;;;;;;;;;;15.30;99.90;;;;;;8201702;29;19979;-83
2023/05/16 11:53:59;;;;;;;;;;;14.90;99.90;;;;;;8202341;29;19917;-83
2023/05/16 11:58:00;;;;;;;;;;;14.50;99.90;;;;;;8187122;29;19911;-83
2023/05/16 12:02:02;;;;;;;;;;;14.00;99.90;;;;;;8202017;29;20261;-83
2023/05/16 12:06:03;;;;;;;;;;;14.00;99.90;;;;;;8202417;29;19998;-83
2023/05/16 12:10:07;;;;;;;;;;;13.70;99.90;;;;;;8202819;28;19942;-83
2023/05/16 12:14:09;;;;;;;;;;;12.80;99.90;;;;;;8208343;29;19940;-83
2023/05/16 12:18:10;;;;;;;;;;;13.40;99.90;;;;;;8208563;29;19911;-83
2023/05/16 12:22:19;;;;;;;;;;;13.90;99.90;;;;;;8208679;29;19922;-83
2023/05/16 12:26:29;;;;;;;;;;;13.20;99.90;;;;;;8208786;29;19917;-84
2023/05/16 12:30:30;;;;;;;;;;;13.00;99.90;;;;;;8209263;29;19910;-85
2023/05/16 12:34:31;;;;;;;;;;;13.00;99.90;;;;;;8207878;29;19911;-85
2023/05/16 12:38:32;;;;;;;;;;;12.90;99.90;;;;;;8207905;29;20001;-83
2023/05/16 12:42:33;;;;;;;;;;;12.70;99.90;;;;;;8207438;29;19918;-84
2023/05/16 12:46:33;;;;;;;;;;;12.80;99.90;;;;;;8200806;29;19942;-84
2023/05/16 12:50:34;;;;;;;;;;;13.10;99.90;;;;;;8191839;29;19918;-85
2023/05/16 12:54:34;;;;;;;;;;;12.90;99.90;;;;;;8191930;29;19910;-84
2023/05/16 12:58:36;;;;;;;;;;;13.10;99.90;;;;;;8207638;28;19965;-85
2023/05/16 13:02:36;;;;;;;;;;;12.80;99.90;;;;;;8206877;29;20552;-85
2023/05/16 13:06:37;;;;;;;;;;;13.00;99.90;;;;;;8206561;29;19915;-85
2023/05/16 13:10:37;;;;;;;;;;;13.20;99.90;;;;;;8206907;29;19918;-83
2023/05/16 13:14:38;;;;;;;;;;;12.80;99.90;;;;;;8206978;29;19993;-82
2023/05/16 13:18:38;;;;;;;;;;;12.40;99.90;;;;;;8206241;29;19973;-82
2023/05/16 13:22:39;;;;;;;;;;;12.50;99.90;;;;;;8204303;28;19938;-82
2023/05/16 13:26:40;;;;;;;;;;;12.30;99.90;;;;;;8206651;29;19910;-82
2023/05/16 13:30:40;;;;;;;;;;;12.10;99.90;;;;;;8205083;29;19911;-82
2023/05/16 13:34:41;;;;;;;;;;;11.90;99.90;;;;;;8205529;29;20328;-82
2023/05/16 13:38:41;;;;;;;;;;;12.20;99.90;;;;;;8204414;29;20005;-82
2023/05/16 13:42:42;;;;;;;;;;;11.70;99.90;;;;;;8204877;29;19921;-83
2023/05/16 13:46:42;;;;;;;;;;;11.90;99.90;;;;;;8203936;29;19911;-83
2023/05/16 13:50:43;;;;;;;;;;;12.60;99.90;;;;;;8204219;29;19991;-83
2023/05/16 13:54:43;;;;;;;;;;;12.70;99.90;;;;;;8187288;29;19967;-83
2023/05/16 13:58:44;;;;;;;;;;;12.30;99.90;;;;;;8195753;29;19921;-83
2023/05/16 14:02:44;;;;;;;;;;;12.70;99.90;;;;;;8182421;29;19938;-83
2023/05/16 14:06:45;;;;;;;;;;;12.60;99.90;;;;;;8203495;29;19914;-83
2023/05/16 14:10:45;;;;;;;;;;;12.50;99.90;;;;;;8203159;29;19922;-82
2023/05/16 14:14:46;;;;;;;;;;;12.80;99.90;;;;;;8202818;29;19938;-85
2023/05/16 14:18:46;;;;;;;;;;;12.20;99.90;;;;;;8203055;29;20005;-84
2023/05/16 14:22:47;;;;;;;;;;;12.20;99.90;;;;;;8204236;29;20379;-84
2023/05/16 14:26:47;;;;;;;;;;;12.00;99.90;;;;;;8206165;28;19994;-85
2023/05/16 14:30:48;;;;;;;;;;;12.10;99.90;;;;;;8210264;29;19910;-84
2023/05/16 14:34:48;;;;;;;;;;;12.70;99.90;;;;;;8232043;28;19965;-83
2023/05/16 14:38:49;;;;;;;;;;;12.80;99.90;;;;;;8202083;29;19914;-82
2023/05/16 14:42:50;;;;;;;;;;;13.20;99.90;;;;;;8201510;29;19921;-83
2023/05/16 14:46:50;;;;;;;;;;;13.80;99.90;;;;;;8203686;29;19938;-83
2023/05/16 14:50:51;;;;;;;;;;;13.20;99.90;;;;;;8201324;29;20430;-83
2023/05/16 14:54:52;;;;;;;;;;;13.20;99.90;;;;;;8200750;29;19952;-83
2023/05/16 14:58:53;;;;;;;;;;;12.80;99.90;;;;;;8199135;23;19927;-81
2023/05/16 15:02:53;;;;;;;;;;;12.80;99.90;;;;;;8201602;23;20434;-80
2023/05/16 15:06:54;;;;;;;;;;;12.80;99.90;;;;;;8165517;29;19929;-80
2023/05/16 15:10:55;;;;;;;;;;;12.60;99.90;;;;;;8167335;29;20306;-79
2023/05/16 15:14:55;;;;;;;;;;;12.60;99.90;;;;;;8189138;29;19918;-81
2023/05/16 15:18:56;;;;;;;;;;;12.60;99.90;;;;;;8195000;29;19917;-81
2023/05/16 15:22:56;;;;;;;;;;;12.90;99.90;;;;;;8197051;28;19918;-81
2023/05/16 15:26:57;;;;;;;;;;;13.40;99.90;;;;;;8194782;29;19997;-81
2023/05/16 15:30:57;;;;;;;;;;;13.30;99.90;;;;;;8195742;29;19911;-82
2023/05/16 15:34:58;;;;;;;;;;;13.20;99.90;;;;;;8195067;29;19911;-82
2023/05/16 15:38:58;;;;;;;;;;;13.30;99.90;;;;;;8197669;28;19917;-82
2023/05/16 15:42:59;;;;;;;;;;;13.70;99.90;;;;;;8196240;28;19946;-82
2023/05/16 15:47:00;;;;;;;;;;;13.90;99.90;;;;;;8197969;28;19915;-82
2023/05/16 15:51:00;;;;;;;;;;;14.00;99.90;;;;;;8231509;28;19942;-80
2023/05/16 15:55:02;;;;;;;;;;;13.80;99.90;;;;;;8206203;29;19915;-82
2023/05/16 15:59:02;;;;;;;;;;;13.50;99.90;;;;;;8172184;28;19926;-80
2023/05/16 16:03:03;;;;;;;;;;;13.50;99.90;;;;;;8190217;28;19926;-83
2023/05/16 16:07:03;;;;;;;;;;;13.70;99.90;;;;;;8186684;28;19925;-81
2023/05/16 16:11:04;;;;;;;;;;;13.00;99.90;;;;;;8201280;28;19918;-82
2023/05/16 16:15:05;;;;;;;;;;;13.00;99.90;;;;;;8204136;28;19914;-80
2023/05/16 16:19:06;;;;;;;;;;;12.40;99.90;;;;;;8190721;28;19918;-81
2023/05/16 16:23:09;;;;;;;;;;;12.00;99.90;;;;;;8185689;28;20517;-85
2023/05/16 16:27:13;;;;;;;;;;;11.70;99.90;;;;;;8200351;28;19914;-82
2023/05/16 16:31:13;;;;;;;;;;;12.40;99.90;;;;;;8195781;28;20402;-81
2023/05/16 16:35:14;;;;;;;;;;;11.50;99.90;;;;;;8185079;29;19914;-82
2023/05/16 16:39:15;;;;;;;;;;;11.60;99.90;;;;;;8202005;28;20395;-82
2023/05/16 16:43:16;;;;;;;;;;;11.30;99.90;;;;;;8212573;28;19953;-83
2023/05/16 16:47:16;;;;;;;;;;;11.00;99.90;;;;;;8189548;28;20881;-79
2023/05/16 16:51:17;;;;;;;;;;;10.90;99.90;;;;;;8184755;28;20578;-83
2023/05/16 16:55:18;;;;;;;;;;;10.60;99.90;;;;;;8212844;28;19969;-83
2023/05/16 16:59:18;;;;;;;;;;;10.70;99.90;;;;;;8197279;28;19942;-82
2023/05/16 17:03:19;;;;;;;;;;;10.40;99.90;;;;;;8224462;28;19969;-80
2023/05/16 17:07:19;;;;;;;;;;;10.30;99.90;;;;;;8198991;28;19915;-80
2023/05/16 17:11:22;;;;;;;;;;;10.20;99.90;;;;;;8211139;28;19914;-82
2023/05/16 17:15:22;;;;;;;;;;;11.20;99.90;;;;;;8208974;28;19922;-82
2023/05/16 17:19:23;;;;;;;;;;;10.30;99.90;;;;;;8213433;28;19969;-82
2023/05/16 17:23:23;;;;;;;;;;;10.30;99.90;;;;;;8208155;28;19922;-80
2023/05/16 17:27:24;;;;;;;;;;;10.20;99.90;;;;;;8207148;28;19950;-80
2023/05/16 17:31:25;;;;;;;;;;;10.10;99.90;;;;;;8184161;29;19931;-78
2023/05/16 17:35:26;;;;;;;;;;;10.30;99.90;;;;;;8180032;28;19918;-80
2023/05/16 17:39:26;;;;;;;;;;;10.20;99.90;;;;;;8207007;28;19917;-82
2023/05/16 17:43:28;;;;;;;;;;;10.00;99.90;;;;;;8206722;28;19945;-82
2023/05/16 17:47:28;;;;;;;;;;;10.10;99.90;;;;;;8208652;28;19961;-81
2023/05/16 17:51:43;;;;;;;;;;;10.20;99.90;;;;;;8212305;28;19938;-80
2023/05/16 17:55:44;;;;;;;;;;;11.80;99.90;;;;;;8198699;28;19985;-81
2023/05/16 17:59:44;;;;;;;;;;;10.10;99.90;;;;;;8205190;28;19977;-83
2023/05/16 18:03:44;;;;;;;;;;;10.10;99.90;;;;;;8201963;28;19926;-82
2023/05/16 18:07:45;;;;;;;;;;;10.30;99.90;;;;;;8194283;28;20543;-81
2023/05/16 18:11:45;;;;;;;;;;;10.20;99.90;;;;;;8203468;28;20005;-80
2023/05/16 18:15:46;;;;;;;;;;;10.40;99.90;;;;;;8212468;28;20176;-80
2023/05/16 18:19:46;;;;;;;;;;;10.10;99.90;;;;;;8187602;28;20302;-83
2023/05/16 18:23:47;;;;;;;;;;;10.80;99.90;;;;;;8204343;28;19918;-83
2023/05/16 18:27:47;;;;;;;;;;;9.90;99.90;;;;;;8209187;28;19942;-80
2023/05/16 18:31:48;;;;;;;;;;;10.00;99.90;;;;;;8188427;28;19961;-80
2023/05/16 18:35:48;;;;;;;;;;;10.10;99.90;;;;;;8209869;28;20674;-81
2023/05/16 18:39:49;;;;;;;;;;;9.80;99.90;;;;;;8197564;28;19918;-83
2023/05/16 18:43:50;;;;;;;;;;;10.00;99.90;;;;;;8184069;28;19930;-78
2023/05/16 18:47:51;;;;;;;;;;;9.90;99.90;;;;;;8198505;28;19918;-82
2023/05/16 18:51:51;;;;;;;;;;;9.90;99.90;;;;;;8198276;28;19914;-82
2023/05/16 18:55:52;;;;;;;;;;;10.70;99.90;;;;;;8180578;28;20041;-79
2023/05/16 18:59:54;;;;;;;;;;;9.90;99.90;;;;;;8204123;28;19919;-81
2023/05/16 19:03:55;;;;;;;;;;;10.10;99.90;;;;;;8187043;28;19926;-83
2023/05/16 19:07:55;;;;;;;;;;;9.80;99.90;;;;;;8192181;28;20006;-81
2023/05/16 19:11:56;;;;;;;;;;;9.90;99.90;;;;;;8200805;28;19921;-80
2023/05/16 19:15:56;;;;;;;;;;;9.80;99.90;;;;;;8207794;28;20379;-83
2023/05/16 19:19:57;;;;;;;;;;;9.90;99.90;;;;;;8202235;28;19919;-81
2023/05/16 19:23:57;;;;;;;;;;;9.80;99.90;;;;;;8184638;28;19929;-82
2023/05/16 19:27:58;;;;;;;;;;;9.80;99.90;;;;;;8208967;28;19915;-81
2023/05/16 19:31:58;;;;;;;;;;;9.70;99.90;;;;;;8201200;28;19925;-83
2023/05/16 19:35:59;;;;;;;;;;;9.70;99.90;;;;;;8193155;28;19914;-79
2023/05/16 19:40:00;;;;;;;;;;;10.50;99.90;;;;;;8190818;28;20311;-82
2023/05/16 19:44:00;;;;;;;;;;;10.10;99.90;;;;;;8188305;28;19929;-79
2023/05/16 19:48:01;;;;;;;;;;;9.70;99.90;;;;;;8213909;28;20283;-79
2023/05/16 19:52:03;;;;;;;;;;;9.70;99.90;;;;;;8191818;28;19917;-81
2023/05/16 19:56:04;;;;;;;;;;;9.70;99.90;;;;;;8206847;28;19921;-80
2023/05/16 20:00:05;;;;;;;;;;;10.00;99.90;;;;;;8188417;28;19930;-80
2023/05/16 20:04:05;;;;;;;;;;;10.00;99.90;;;;;;8184142;28;19933;-78
2023/05/16 20:08:06;;;;;;;;;;;9.70;99.90;;;;;;8189169;28;19914;-79
2023/05/16 20:12:07;;;;;;;;;;;9.70;99.90;;;;;;8187153;28;19924;-79
2023/05/16 20:16:07;;;;;;;;;;;10.00;99.90;;;;;;8195211;28;20294;-80
2023/05/16 20:20:08;;;;;;;;;;;9.80;99.90;;;;;;8188664;28;19936;-79
2023/05/16 20:24:08;;;;;;;;;;;10.00;99.90;;;;;;8187110;28;19928;-80
2023/05/16 20:28:09;;;;;;;;;;;9.90;99.90;;;;;;8198255;28;19918;-80
2023/05/16 20:32:09;;;;;;;;;;;9.90;99.90;;;;;;8194411;28;19915;-79
2023/05/16 20:36:10;;;;;;;;;;;9.70;99.90;;;;;;8202230;28;19915;-79
2023/05/16 20:40:10;;;;;;;;;;;10.00;99.90;;;;;;8203803;28;20087;-80
2023/05/16 20:44:11;;;;;;;;;;;9.90;99.90;;;;;;8210518;28;20017;-80
2023/05/16 20:48:12;;;;;;;;;;;9.70;99.90;;;;;;8188753;28;19993;-79
2023/05/16 20:52:13;;;;;;;;;;;9.70;99.90;;;;;;8210764;28;19952;-80
2023/05/16 20:56:13;;;;;;;;;;;9.40;99.90;;;;;;8188147;29;19921;-80
2023/05/16 21:00:14;;;;;;;;;;;9.60;99.90;;;;;;8197007;28;19956;-81
2023/05/16 21:04:15;;;;;;;;;;;9.80;99.90;;;;;;8205865;23;19927;-77
2023/05/16 21:08:15;;;;;;;;;;;10.80;99.90;;;;;;8211190;28;19977;-78
2023/05/16 21:12:16;;;;;;;;;;;9.50;99.90;;;;;;8213589;28;19916;-77
2023/05/16 21:16:16;;;;;;;;;;;9.60;99.90;;;;;;8216886;28;19914;-77
2023/05/16 21:20:17;;;;;;;;;;;9.60;99.90;;;;;;8212233;28;19969;-77
2023/05/16 21:24:17;;;;;;;;;;;9.90;99.90;;;;;;8202472;28;20005;-79
2023/05/16 21:28:17;;;;;;;;;;;9.60;99.90;;;;;;8204568;28;19917;-77
2023/05/16 21:32:18;;;;;;;;;;;9.50;99.90;;;;;;8197297;28;19922;-77
2023/05/16 21:36:19;;;;;;;;;;;9.40;99.90;;;;;;8202333;28;19969;-80
2023/05/16 21:40:23;;;;;;;;;;;9.50;99.90;;;;;;8201232;28;20367;-77
2023/05/16 21:44:24;;;;;;;;;;;9.40;99.90;;;;;;8199469;28;20039;-77
2023/05/16 21:48:24;;;;;;;;;;;9.50;99.90;;;;;;8202877;28;19910;-77
2023/05/16 21:52:25;;;;;;;;;;;9.60;99.90;;;;;;8202165;28;19910;-77
2023/05/16 21:56:26;;;;;;;;;;;9.60;99.90;;;;;;8202345;28;20364;-77
2023/05/16 22:00:27;;;;;;;;;;;9.60;99.90;;;;;;8203697;28;19910;-78
2023/05/16 22:04:27;;;;;;;;;;;9.50;99.90;;;;;;8197736;28;20388;-77
2023/05/16 22:08:28;;;;;;;;;;;9.40;99.90;;;;;;8200362;28;19915;-78
2023/05/16 22:12:28;;;;;;;;;;;9.40;99.90;;;;;;8202134;28;20544;-77
2023/05/16 22:16:28;;;;;;;;;;;9.80;99.90;;;;;;8200371;28;19972;-77
2023/05/16 22:20:29;;;;;;;;;;;9.40;99.90;;;;;;8203983;28;19961;-77
2023/05/16 22:24:30;;;;;;;;;;;9.80;99.90;;;;;;8186565;28;19918;-78
2023/05/16 22:28:30;;;;;;;;;;;9.50;99.90;;;;;;8204526;28;19989;-77
2023/05/16 22:32:31;;;;;;;;;;;9.40;99.90;;;;;;8203475;28;19915;-78
2023/05/16 22:36:31;;;;;;;;;;;9.20;99.90;;;;;;8201160;28;20396;-78
2023/05/16 22:40:32;;;;;;;;;;;9.50;99.90;;;;;;8202226;28;19910;-77
2023/05/16 22:44:32;;;;;;;;;;;9.40;99.90;;;;;;8204693;28;20354;-77
2023/05/16 22:48:32;;;;;;;;;;;9.30;99.90;;;;;;8200260;28;19946;-77
2023/05/16 22:52:33;;;;;;;;;;;9.20;99.90;;;;;;8203331;28;19953;-76
2023/05/16 22:56:33;;;;;;;;;;;9.00;99.90;;;;;;8200418;28;19911;-77
2023/05/16 23:00:34;;;;;;;;;;;9.00;99.90;;;;;;8200350;28;19910;-77
2023/05/16 23:04:34;;;;;;;;;;;9.10;99.90;;;;;;8183022;28;19918;-77
2023/05/16 23:08:35;;;;;;;;;;;8.90;99.90;;;;;;8184007;28;19914;-77
2023/05/16 23:12:36;;;;;;;;;;;9.00;99.90;;;;;;8202961;28;19915;-77
2023/05/16 23:16:36;;;;;;;;;;;9.00;99.90;;;;;;8202147;28;19915;-77
2023/05/16 23:20:37;;;;;;;;;;;8.90;99.90;;;;;;8200019;28;19995;-77
2023/05/16 23:24:37;;;;;;;;;;;8.80;99.90;;;;;;8202073;28;20478;-78
2023/05/16 23:28:38;;;;;;;;;;;8.70;99.90;;;;;;8202536;28;20705;-78
2023/05/16 23:32:38;;;;;;;;;;;8.80;99.90;;;;;;8201305;28;19958;-77
2023/05/16 23:36:39;;;;;;;;;;;8.80;99.90;;;;;;8199944;28;20402;-78
2023/05/16 23:40:39;;;;;;;;;;;8.70;99.90;;;;;;8200984;28;19914;-79
2023/05/16 23:44:40;;;;;;;;;;;8.70;99.90;;;;;;8199649;28;19950;-77
2023/05/16 23:48:41;;;;;;;;;;;9.40;99.90;;;;;;8200064;28;19985;-77
2023/05/16 23:52:41;;;;;;;;;;;8.60;99.90;;;;;;8207956;28;19978;-77
2023/05/16 23:56:42;;;;;;;;;;;8.50;99.90;;;;;;8203307;28;19926;-78
